BAW007 EDDF-EGLL
Flight info
| Callsign | BAW007 |
|---|---|
| Flight time | N/A |
| Altitude | 34000 |
| Route | SOBRA2L/18 SOBRA Y180 BITBU Y181 DEMUL M624 BUB L608 SASKI DCT XAMAN L980 LOGAN |
| Aircraft | A35K/H-SDE2E3GHIJ3J4J5LM1ORWXY/LB1D1 |
Departure
| Time | 2026-05-04 14:45 |
|---|---|
| Airport | Frankfurt Main Airport (EDDF) |
Arrival
| Time | N/A |
|---|---|
| Airport | London Heathrow Airport (EGLL) |
| Time | Latitude | Longitude | Altitude | Speed | Heading |
|---|---|---|---|---|---|
| 2026-05-04 13:52 | 50.03718 | 8.53096 | 361 ft | 0 kts | 340° |
| 2026-05-04 14:29 | 50.03689 | 8.53113 | 361 ft | 4 kts | 339° |
| 2026-05-04 14:30 | 50.03664 | 8.53127 | 357 ft | 4 kts | 339° |
| 2026-05-04 14:30 | 50.03640 | 8.53141 | 361 ft | 4 kts | 342° |
| 2026-05-04 14:30 | 50.03616 | 8.53105 | 361 ft | 4 kts | 79° |
| 2026-05-04 14:31 | 50.03613 | 8.53087 | 361 ft | 0 kts | 70° |
| 2026-05-04 14:38 | 50.03614 | 8.53088 | 361 ft | 0 kts | 70° |
| 2026-05-04 14:39 | 50.03617 | 8.53102 | 351 ft | 8 kts | 70° |
| 2026-05-04 14:40 | 50.03669 | 8.53310 | 361 ft | 13 kts | 67° |
| 2026-05-04 14:40 | 50.03704 | 8.53437 | 356 ft | 13 kts | 65° |
| 2026-05-04 14:40 | 50.03695 | 8.53540 | 361 ft | 8 kts | 141° |
| 2026-05-04 14:40 | 50.03659 | 8.53538 | 361 ft | 5 kts | 207° |
| 2026-05-04 14:41 | 50.03597 | 8.53382 | 358 ft | 23 kts | 250° |
| 2026-05-04 14:41 | 50.03541 | 8.53151 | 359 ft | 22 kts | 248° |
| 2026-05-04 14:41 | 50.03444 | 8.52765 | 358 ft | 0 kts | 247° |
| 2026-05-04 14:43 | 50.03434 | 8.52724 | 358 ft | 14 kts | 251° |
| 2026-05-04 14:43 | 50.03406 | 8.52613 | 361 ft | 7 kts | 205° |
| 2026-05-04 14:44 | 50.03345 | 8.52602 | 358 ft | 20 kts | 184° |
| 2026-05-04 14:44 | 50.02965 | 8.52602 | 359 ft | 90 kts | 179° |
| 2026-05-04 14:44 | 50.02119 | 8.52607 | 360 ft | 152 kts | 180° |
| 2026-05-04 14:44 | 50.00959 | 8.52622 | 696 ft | 176 kts | 178° |
| 2026-05-04 14:45 | 49.99660 | 8.52809 | 1081 ft | 201 kts | 175° |
| 2026-05-04 14:45 | 49.98164 | 8.52691 | 1358 ft | 230 kts | 198° |
| 2026-05-04 14:45 | 49.96769 | 8.51317 | 1791 ft | 249 kts | 225° |
| 2026-05-04 14:45 | 49.95500 | 8.49331 | 2423 ft | 269 kts | 227° |
| 2026-05-04 14:46 | 49.94154 | 8.47170 | 3089 ft | 288 kts | 226° |
| 2026-05-04 14:46 | 49.92703 | 8.44896 | 3724 ft | 305 kts | 226° |
| 2026-05-04 14:46 | 49.91155 | 8.42516 | 4360 ft | 321 kts | 226° |
| 2026-05-04 14:46 | 49.89525 | 8.40038 | 5013 ft | 335 kts | 225° |
| 2026-05-04 14:47 | 49.87911 | 8.37347 | 5638 ft | 349 kts | 234° |
| 2026-05-04 14:47 | 49.86944 | 8.33839 | 6280 ft | 365 kts | 257° |
| 2026-05-04 14:47 | 49.86930 | 8.29842 | 6874 ft | 379 kts | 279° |
| 2026-05-04 14:47 | 49.87838 | 8.26174 | 7469 ft | 385 kts | 300° |
| 2026-05-04 14:48 | 49.89585 | 8.22984 | 8113 ft | 394 kts | 313° |
| 2026-05-04 14:48 | 49.91492 | 8.19956 | 8905 ft | 389 kts | 310° |
| 2026-05-04 14:48 | 49.93185 | 8.16723 | 9828 ft | 382 kts | 297° |
| 2026-05-04 14:48 | 49.94099 | 8.12947 | 10682 ft | 369 kts | 275° |
| 2026-05-04 14:49 | 49.94047 | 8.09037 | 11555 ft | 358 kts | 256° |
| 2026-05-04 14:49 | 49.93386 | 8.05389 | 12358 ft | 355 kts | 248° |
| 2026-05-04 14:49 | 49.92501 | 8.01767 | 12835 ft | 365 kts | 246° |
| 2026-05-04 14:49 | 49.91564 | 7.97985 | 12985 ft | 386 kts | 248° |
| 2026-05-04 14:50 | 49.90673 | 7.93999 | 12985 ft | 391 kts | 250° |
| 2026-05-04 14:50 | 49.89894 | 7.89981 | 12988 ft | 388 kts | 252° |
| 2026-05-04 14:50 | 49.89202 | 7.85994 | 12989 ft | 387 kts | 253° |
| 2026-05-04 14:50 | 49.88550 | 7.81992 | 12999 ft | 387 kts | 254° |
| 2026-05-04 14:51 | 49.87907 | 7.77937 | 12991 ft | 387 kts | 254° |
| 2026-05-04 14:51 | 49.87384 | 7.73842 | 12989 ft | 389 kts | 262° |
| 2026-05-04 14:51 | 49.87451 | 7.69642 | 12999 ft | 392 kts | 274° |
| 2026-05-04 14:51 | 49.87873 | 7.65462 | 12996 ft | 393 kts | 278° |
| 2026-05-04 14:52 | 49.88465 | 7.61263 | 12998 ft | 394 kts | 280° |
| 2026-05-04 14:52 | 49.89118 | 7.57189 | 12999 ft | 395 kts | 281° |
| 2026-05-04 14:52 | 49.89801 | 7.53066 | 13005 ft | 394 kts | 281° |
| 2026-05-04 14:52 | 49.90480 | 7.48933 | 13287 ft | 400 kts | 281° |
| 2026-05-04 14:53 | 49.91155 | 7.44726 | 13930 ft | 403 kts | 281° |
| 2026-05-04 14:53 | 49.91815 | 7.40519 | 14761 ft | 399 kts | 281° |
| 2026-05-04 14:53 | 49.92456 | 7.36371 | 15624 ft | 395 kts | 280° |
| 2026-05-04 14:53 | 49.93086 | 7.32244 | 16509 ft | 390 kts | 280° |
| 2026-05-04 14:54 | 49.93702 | 7.28182 | 17409 ft | 384 kts | 279° |
| 2026-05-04 14:54 | 49.94308 | 7.24179 | 18339 ft | 376 kts | 279° |
| 2026-05-04 14:54 | 49.94897 | 7.20278 | 19110 ft | 369 kts | 279° |
| 2026-05-04 14:54 | 49.95475 | 7.16433 | 19828 ft | 361 kts | 279° |
| 2026-05-04 14:55 | 49.96038 | 7.12680 | 20537 ft | 354 kts | 279° |
| 2026-05-04 14:55 | 49.96595 | 7.08973 | 21166 ft | 348 kts | 278° |
| 2026-05-04 14:55 | 49.97140 | 7.05308 | 21500 ft | 352 kts | 278° |
| 2026-05-04 14:55 | 49.97692 | 7.01534 | 21517 ft | 365 kts | 278° |
| 2026-05-04 14:56 | 49.98263 | 6.97626 | 21503 ft | 376 kts | 278° |
| 2026-05-04 14:56 | 49.98839 | 6.93609 | 21666 ft | 383 kts | 277° |
| 2026-05-04 14:56 | 49.99134 | 6.89526 | 22135 ft | 378 kts | 268° |
| 2026-05-04 14:56 | 49.99170 | 6.85456 | 22633 ft | 376 kts | 266° |
| 2026-05-04 14:57 | 49.99117 | 6.81406 | 23166 ft | 374 kts | 264° |
| 2026-05-04 14:57 | 49.99010 | 6.77372 | 23663 ft | 372 kts | 263° |
| 2026-05-04 14:57 | 49.98879 | 6.73368 | 24091 ft | 369 kts | 263° |
| 2026-05-04 14:57 | 49.98744 | 6.69430 | 24523 ft | 364 kts | 263° |
| 2026-05-04 14:58 | 49.98611 | 6.65528 | 24976 ft | 358 kts | 263° |
| 2026-05-04 14:58 | 49.98484 | 6.61695 | 25413 ft | 352 kts | 263° |
| 2026-05-04 14:58 | 49.98362 | 6.57929 | 25872 ft | 346 kts | 263° |
| 2026-05-04 14:58 | 49.98284 | 6.55482 | 26104 ft | 343 kts | 263° |
| 2026-05-04 14:59 | 49.98133 | 6.50575 | 26409 ft | 345 kts | 263° |
| 2026-05-04 14:59 | 49.98008 | 6.46774 | 26421 ft | 352 kts | 263° |
| 2026-05-04 14:59 | 49.97744 | 6.39007 | 26435 ft | 368 kts | 263° |
| 2026-05-04 15:00 | 49.97611 | 6.35042 | 26536 ft | 374 kts | 263° |
| 2026-05-04 15:00 | 49.97478 | 6.31010 | 26808 ft | 374 kts | 263° |
| 2026-05-04 15:00 | 49.97347 | 6.26996 | 27090 ft | 373 kts | 263° |
| 2026-05-04 15:01 | 49.97080 | 6.18960 | 27666 ft | 372 kts | 263° |
| 2026-05-04 15:01 | 49.96945 | 6.14959 | 27945 ft | 371 kts | 263° |
| 2026-05-04 15:01 | 49.96806 | 6.10968 | 28236 ft | 369 kts | 262° |
| 2026-05-04 15:01 | 49.96659 | 6.07019 | 28532 ft | 367 kts | 262° |
| 2026-05-04 15:02 | 49.96597 | 6.03072 | 28790 ft | 368 kts | 269° |
| 2026-05-04 15:02 | 49.97043 | 5.99162 | 28998 ft | 374 kts | 283° |
| 2026-05-04 15:02 | 49.98188 | 5.95459 | 29032 ft | 388 kts | 301° |
| 2026-05-04 15:02 | 49.99937 | 5.92202 | 29060 ft | 397 kts | 308° |
| 2026-05-04 15:03 | 50.01883 | 5.89123 | 29179 ft | 399 kts | 311° |
| 2026-05-04 15:03 | 50.03900 | 5.86153 | 29364 ft | 400 kts | 312° |
| 2026-05-04 15:03 | 50.05945 | 5.83210 | 29521 ft | 400 kts | 312° |
| 2026-05-04 15:03 | 50.07983 | 5.80267 | 29692 ft | 400 kts | 312° |
| 2026-05-04 15:04 | 50.10012 | 5.77311 | 29858 ft | 399 kts | 311° |
| 2026-05-04 15:04 | 50.12020 | 5.74342 | 29985 ft | 399 kts | 311° |
| 2026-05-04 15:04 | 50.14025 | 5.71342 | 30111 ft | 399 kts | 311° |
| 2026-05-04 15:04 | 50.16027 | 5.68324 | 30213 ft | 400 kts | 310° |
| 2026-05-04 15:05 | 50.20044 | 5.62240 | 30253 ft | 406 kts | 311° |
| 2026-05-04 15:05 | 50.24131 | 5.56042 | 30257 ft | 413 kts | 311° |
| 2026-05-04 15:06 | 50.28243 | 5.49804 | 30484 ft | 416 kts | 311° |
| 2026-05-04 15:07 | 50.34482 | 5.40313 | 30767 ft | 419 kts | 311° |
| 2026-05-04 15:07 | 50.38676 | 5.33909 | 30961 ft | 422 kts | 311° |
| 2026-05-04 15:08 | 50.42882 | 5.27469 | 31170 ft | 424 kts | 311° |
| 2026-05-04 15:08 | 50.44992 | 5.24232 | 31280 ft | 425 kts | 310° |
| 2026-05-04 15:08 | 50.47110 | 5.20979 | 31374 ft | 426 kts | 310° |
| 2026-05-04 15:08 | 50.49236 | 5.17707 | 31481 ft | 428 kts | 310° |
| 2026-05-04 15:09 | 50.51360 | 5.14435 | 31577 ft | 429 kts | 310° |
| 2026-05-04 15:09 | 50.55631 | 5.07847 | 31822 ft | 432 kts | 310° |
| 2026-05-04 15:10 | 50.59922 | 5.01209 | 32015 ft | 432 kts | 310° |
| 2026-05-04 15:10 | 50.61342 | 4.99008 | 32076 ft | 432 kts | 310° |
| 2026-05-04 15:10 | 50.65619 | 4.92364 | 32292 ft | 432 kts | 310° |
| 2026-05-04 15:11 | 50.67758 | 4.89037 | 32395 ft | 431 kts | 310° |
| 2026-05-04 15:11 | 50.72019 | 4.82401 | 32602 ft | 430 kts | 310° |
| 2026-05-04 15:11 | 50.74147 | 4.79081 | 32708 ft | 429 kts | 310° |
| 2026-05-04 15:12 | 50.76270 | 4.75771 | 32815 ft | 428 kts | 310° |
| 2026-05-04 15:12 | 50.80493 | 4.69167 | 33027 ft | 426 kts | 309° |
| 2026-05-04 15:13 | 50.84660 | 4.62617 | 33169 ft | 426 kts | 310° |
| 2026-05-04 15:13 | 50.88848 | 4.56016 | 33256 ft | 426 kts | 310° |
| 2026-05-04 15:13 | 50.90685 | 4.52459 | 33269 ft | 416 kts | 296° |
| 2026-05-04 15:14 | 50.92280 | 4.48630 | 33268 ft | 417 kts | 297° |
| 2026-05-04 15:14 | 50.95320 | 4.40813 | 33337 ft | 416 kts | 295° |
| 2026-05-04 15:15 | 50.98268 | 4.32994 | 33412 ft | 416 kts | 295° |
| 2026-05-04 15:15 | 51.01246 | 4.25122 | 33487 ft | 416 kts | 295° |
| 2026-05-04 15:16 | 51.05740 | 4.13299 | 33571 ft | 417 kts | 295° |
| 2026-05-04 15:17 | 51.10156 | 4.01646 | 33652 ft | 417 kts | 295° |
| 2026-05-04 15:17 | 51.14638 | 3.89756 | 33683 ft | 418 kts | 295° |
| 2026-05-04 15:18 | 51.17624 | 3.81803 | 33691 ft | 420 kts | 295° |
| 2026-05-04 15:19 | 51.22120 | 3.69785 | 33715 ft | 423 kts | 295° |
| 2026-05-04 15:19 | 51.26602 | 3.57737 | 33864 ft | 422 kts | 295° |
| 2026-05-04 15:20 | 51.29599 | 3.49662 | 33908 ft | 423 kts | 295° |
| 2026-05-04 15:20 | 51.32593 | 3.41560 | 33911 ft | 424 kts | 295° |
| 2026-05-04 15:21 | 51.35327 | 3.33233 | 33942 ft | 420 kts | 287° |
| 2026-05-04 15:22 | 51.38494 | 3.20224 | 33945 ft | 421 kts | 285° |
| 2026-05-04 15:22 | 51.41586 | 3.06975 | 33957 ft | 425 kts | 285° |
| 2026-05-04 15:23 | 51.43670 | 2.98082 | 33957 ft | 428 kts | 285° |
| 2026-05-04 15:23 | 51.45764 | 2.89122 | 33961 ft | 431 kts | 285° |
| 2026-05-04 15:24 | 51.49986 | 2.70963 | 33989 ft | 438 kts | 285° |
| 2026-05-04 15:25 | 51.51051 | 2.66355 | 33784 ft | 445 kts | 285° |
| 2026-05-04 15:25 | 51.52137 | 2.61634 | 33396 ft | 456 kts | 285° |
| 2026-05-04 15:25 | 51.53366 | 2.56854 | 33042 ft | 470 kts | 292° |
| 2026-05-04 15:26 | 51.57179 | 2.47926 | 32312 ft | 503 kts | 310° |
| 2026-05-04 15:26 | 51.59815 | 2.44160 | 31952 ft | 511 kts | 319° |
| 2026-05-04 15:26 | 51.65543 | 2.37318 | 31198 ft | 514 kts | 321° |
| 2026-05-04 15:27 | 51.68439 | 2.34001 | 30692 ft | 514 kts | 322° |
| 2026-05-04 15:27 | 51.74134 | 2.27045 | 29387 ft | 510 kts | 312° |
| 2026-05-04 15:28 | 51.77775 | 2.17766 | 27905 ft | 492 kts | 284° |
| 2026-05-04 15:28 | 51.78426 | 2.12398 | 27218 ft | 483 kts | 270° |
| 2026-05-04 15:28 | 51.77476 | 2.01874 | 25896 ft | 471 kts | 258° |
| 2026-05-04 15:29 | 51.77062 | 1.96631 | 25302 ft | 469 kts | 261° |
| 2026-05-04 15:30 | 51.75703 | 1.76052 | 23201 ft | 458 kts | 262° |
| 2026-05-04 15:30 | 51.74741 | 1.60826 | 23024 ft | 452 kts | 262° |
| 2026-05-04 15:31 | 51.74102 | 1.50753 | 22749 ft | 443 kts | 262° |
| 2026-05-04 15:31 | 51.73795 | 1.45975 | 22251 ft | 425 kts | 262° |
| 2026-05-04 15:32 | 51.72915 | 1.32476 | 20509 ft | 385 kts | 262° |
| 2026-05-04 15:32 | 51.72356 | 1.24041 | 19267 ft | 368 kts | 262° |
| 2026-05-04 15:33 | 51.71819 | 1.16020 | 18056 ft | 354 kts | 262° |
| 2026-05-04 15:34 | 51.71040 | 1.04527 | 16078 ft | 337 kts | 262° |
| 2026-05-04 15:34 | 51.70782 | 1.00758 | 15440 ft | 332 kts | 263° |
| 2026-05-04 15:34 | 51.70283 | 0.93480 | 14119 ft | 326 kts | 263° |
| 2026-05-04 15:35 | 51.69772 | 0.86263 | 12679 ft | 321 kts | 263° |
| 2026-05-04 15:35 | 51.69522 | 0.82657 | 11995 ft | 318 kts | 263° |
| 2026-05-04 15:35 | 51.69281 | 0.79194 | 11359 ft | 313 kts | 263° |
| 2026-05-04 15:36 | 51.68814 | 0.72554 | 10202 ft | 305 kts | 263° |
| 2026-05-04 15:36 | 51.68575 | 0.69181 | 9570 ft | 301 kts | 263° |
| 2026-05-04 15:36 | 51.68343 | 0.65861 | 8911 ft | 297 kts | 263° |
| 2026-05-04 15:37 | 51.68112 | 0.62618 | 8264 ft | 294 kts | 263° |
| 2026-05-04 15:37 | 51.67876 | 0.59363 | 7626 ft | 292 kts | 263° |
| 2026-05-04 15:37 | 51.67641 | 0.56128 | 7024 ft | 291 kts | 263° |
| 2026-05-04 15:37 | 51.67405 | 0.52890 | 6436 ft | 290 kts | 263° |
| 2026-05-04 15:38 | 51.67172 | 0.49718 | 6040 ft | 279 kts | 263° |
| 2026-05-04 15:38 | 51.66964 | 0.46803 | 5750 ft | 266 kts | 263° |
| 2026-05-04 15:38 | 51.66758 | 0.43958 | 5460 ft | 255 kts | 263° |
| 2026-05-04 15:38 | 51.66548 | 0.41146 | 5153 ft | 244 kts | 263° |
| 2026-05-04 15:39 | 51.66352 | 0.38514 | 4945 ft | 230 kts | 263° |
| 2026-05-04 15:39 | 51.66171 | 0.36062 | 4779 ft | 211 kts | 263° |
| 2026-05-04 15:39 | 51.65809 | 0.31207 | 4692 ft | 248 kts | 263° |
| 2026-05-04 15:40 | 51.65603 | 0.28457 | 4611 ft | 249 kts | 263° |
| 2026-05-04 15:40 | 51.65393 | 0.25660 | 4540 ft | 253 kts | 263° |
| 2026-05-04 15:40 | 51.65181 | 0.22837 | 4453 ft | 254 kts | 263° |
| 2026-05-04 15:40 | 51.64967 | 0.19998 | 4390 ft | 254 kts | 263° |
| 2026-05-04 15:41 | 51.64746 | 0.17178 | 4319 ft | 254 kts | 262° |
| 2026-05-04 15:41 | 51.64197 | 0.14524 | 4243 ft | 254 kts | 238° |
| 2026-05-04 15:41 | 51.63127 | 0.12241 | 4169 ft | 255 kts | 230° |
| 2026-05-04 15:41 | 51.61969 | 0.10079 | 4057 ft | 255 kts | 229° |
| 2026-05-04 15:42 | 51.60812 | 0.07925 | 4000 ft | 253 kts | 230° |
| 2026-05-04 15:42 | 51.59700 | 0.05840 | 3965 ft | 237 kts | 230° |
| 2026-05-04 15:42 | 51.58650 | 0.03865 | 3921 ft | 233 kts | 230° |
| 2026-05-04 15:42 | 51.57594 | 0.01872 | 3879 ft | 234 kts | 230° |
| 2026-05-04 15:43 | 51.56548 | -0.00102 | 3857 ft | 234 kts | 230° |
| 2026-05-04 15:43 | 51.55496 | -0.02091 | 3809 ft | 234 kts | 230° |
| 2026-05-04 15:43 | 51.54450 | -0.04064 | 3759 ft | 234 kts | 230° |
| 2026-05-04 15:43 | 51.53391 | -0.06063 | 3718 ft | 234 kts | 230° |
| 2026-05-04 15:44 | 51.52397 | -0.07936 | 3608 ft | 232 kts | 230° |
| 2026-05-04 15:44 | 51.51405 | -0.09805 | 3478 ft | 233 kts | 230° |
| 2026-05-04 15:44 | 51.50505 | -0.11514 | 3264 ft | 232 kts | 230° |
| 2026-05-04 15:44 | 51.49693 | -0.13043 | 3112 ft | 231 kts | 225° |
| 2026-05-04 15:45 | 51.48795 | -0.14669 | 2929 ft | 229 kts | 224° |
| 2026-05-04 15:45 | 51.48222 | -0.15812 | 2802 ft | 230 kts | 231° |